Sunday, August 19, 2018, 5:54 PM GMT
Back to Local

CYUL, Montreal / Pierre Elliot Trudeau International Airport, Que

Location: , , Canada Lat: 45.467
Local Time: 5:54 PM GMT (17:54 GMT) Lon: -73.75
Time Zone: GMT Elev: 101 ft

Show me the last for .
Show Decoded

2018-08-19 17:00 METAR CYUL 191700Z 14008KT 110V170 15SM SCT060 27/14 A3006 RMK CU4 SLP182
                 DENSITY ALT 1400FT =
2018-08-19 16:00 METAR CYUL 191600Z 08006KT 030V110 15SM FEW040 25/15 A3007 RMK CU2 SLP185
                 DENSITY ALT 1200FT =
2018-08-19 15:00 METAR CYUL 191500Z VRB03KT 15SM FEW020 FEW250 24/16 A3008 RMK CF1CI1 CF TR CI TR
                 SLP188 DENSITY ALT 1000FT =
2018-08-19 14:00 METAR CYUL 191400Z 04004KT 360V070 15SM FEW250 22/16 A3007 RMK CI1 CI TR SLP185
                 DENSITY ALT 800FT =
2018-08-19 13:00 METAR CYUL 191300Z 03005KT 360V070 15SM FEW240 20/15 A3006 RMK CI1 CI TR SLP182
                 DENSITY ALT 600FT =
2018-08-19 12:00 METAR CYUL 191200Z 03007KT 15SM FEW220 19/15 A3006 RMK CI1 CI TR SLP181 DENSITY
                 ALT 500FT =
2018-08-19 11:00 METAR CYUL 191100Z 02008KT 15SM FEW220 17/15 A3004 RMK CI1 CI TR SLP174 DENSITY
                 ALT 300FT =
2018-08-19 10:00 METAR CYUL 191000Z 02006KT 15SM SKC 16/14 A3002 RMK SLP167 DENSITY ALT 200FT =
2018-08-19 09:00 METAR CYUL 190900Z 02005KT 15SM SKC 16/14 A3000 RMK SLP161 DENSITY ALT 200FT =
2018-08-19 08:00 METAR CYUL 190800Z 35005KT 15SM SKC 17/14 A2999 RMK SLP156 DENSITY ALT 400FT =
2018-08-19 07:00 METAR CYUL 190700Z 02007KT 15SM SKC 17/14 A2998 RMK SLP154 DENSITY ALT 400FT =
2018-08-19 06:00 METAR CYUL 190600Z 04005KT 15SM SKC 18/14 A2997 RMK SLP152 DENSITY ALT 400FT =
2018-08-19 05:00 METAR CYUL 190500Z 36004KT 15SM SKC 18/15 A2997 RMK SLP150 DENSITY ALT 500FT =
2018-08-19 04:00 METAR CYUL 190400Z 34005KT 15SM SKC 20/15 A2996 RMK SLP146 DENSITY ALT 700FT =
2018-08-19 03:00 METAR CYUL 190300Z VRB02KT 15SM SKC 20/14 A2996 RMK SLP148 DENSITY ALT 700FT =
2018-08-19 02:00 METAR CYUL 190200Z 01002KT 15SM FEW240 22/14 A2996 RMK CI1 CI TR SLP146 DENSITY
                 ALT 1000FT =
2018-08-19 01:00 METAR CYUL 190100Z 08003KT 15SM FEW065 FEW240 22/14 A2995 RMK SC1CI1 SC TR CI TR
                 SLP144 DENSITY ALT 900FT =
2018-08-19 00:00 METAR CYUL 190000Z 09006KT 15SM FEW065 FEW250 23/14 A2993 RMK SC1CI2 SC TR
                 SLP137 DENSITY ALT 1100FT =
2018-08-18 23:00 METAR CYUL 182300Z 04007KT 15SM FEW045 FEW090 FEW250 24/15 A2992 RMK CF1AC1CI1
                 CF TR AC TR CI TR SLP133 DENSITY ALT 1200FT =
2018-08-18 22:00 METAR CYUL 182200Z 06009KT 15SM FEW045 FEW120 SCT240 25/14 A2991 RMK CF1AC1CI2
                 CF TR SLP131 DENSITY ALT 1400FT =
2018-08-18 21:00 METAR CYUL 182100Z 06010KT 15SM FEW045 SCT250 26/15 A2990 RMK CF2CI2 SLP127
                 DENSITY ALT 1400FT =
2018-08-18 20:00 METAR CYUL 182000Z 05009KT 350V070 15SM FEW040 BKN230 25/15 A2990 RMK CF1CI6 CF
                 TR SLP127 DENSITY ALT 1400FT =
2018-08-18 19:00 METAR CYUL 181900Z 03010KT 15SM FEW040 OVC220 25/14 A2990 RMK CF1CS7 SLP127
                 DENSITY ALT 1300FT =
2018-08-18 18:00 METAR CYUL 181800Z 02012G19KT 360V060 15SM FEW040 OVC180 24/14 A2991 RMK CF1AS7
                 SLP130 DENSITY ALT 1200FT =

Support USWX by starting your Amazon purchase here.